Open Full Screen Window  High Contrast Mode
May 04, 2016 7:38 AM EDT
Present Weather: Rain
Weather Information
Wind Direction
  ---
Wind Speed
  00 kt (0 mph)
Wind Gust
  00 kt (0 mph)
Altimeter
29.57 in
Visibility
10 SM
Temperature
09° C
48° F
Dewpoint
08° C
46° F
Humidity
94%
1hr Rain Fall
00.00 in.
24hr Rain Fall
00.00 in.
Sky Condition
Overcast @ 5,500 ft
Scattered @ 4,800 ft
VFR

METAR KIKW 041138Z AUTO 00000KT 10SM RA SCT048 OVC055 09/08 A2957 RMK AO2 T00860079

*Background is not an actual portrayal of the airport.